createdAt,value
2022-12-31T00:01:45.253Z,98334.97
2022-12-31T00:04:14.014Z,98334.41
2022-12-31T00:06:42.741Z,98356.06
2022-12-31T00:09:12.596Z,98360.56
2022-12-31T00:11:41.849Z,98371.84
2022-12-31T00:14:10.602Z,98373.69
2022-12-31T00:16:43.519Z,98376.34
2022-12-31T00:19:15.673Z,98365.09
2022-12-31T00:21:45.544Z,98357.00
2022-12-31T00:24:14.295Z,98367.75
2022-12-31T00:26:43.202Z,98369.41
2022-12-31T00:29:12.261Z,98372.06
2022-12-31T00:31:42.401Z,98378.22
2022-12-31T00:34:11.559Z,98378.22
2022-12-31T00:36:42.639Z,98380.97
2022-12-31T00:39:12.474Z,98389.44
2022-12-31T00:41:43.287Z,98395.34
2022-12-31T00:44:13.556Z,98394.28
2022-12-31T00:49:12.603Z,98409.84
2022-12-31T00:51:41.279Z,98421.44
2022-12-31T00:54:10.205Z,98413.34
2022-12-31T00:56:38.852Z,98414.63
2022-12-31T00:59:07.586Z,98406.72
2022-12-31T01:01:39.439Z,98406.03
2022-12-31T01:04:13.231Z,98413.78
2022-12-31T01:06:43.262Z,98416.81
2022-12-31T01:09:13.990Z,98414.50
2022-12-31T01:12:34.747Z,98425.88
2022-12-31T01:15:04.430Z,98432.59
2022-12-31T01:17:33.104Z,98444.41
2022-12-31T01:20:03.301Z,98436.53
2022-12-31T01:22:32.005Z,98437.69
2022-12-31T01:25:00.677Z,98438.47
2022-12-31T01:27:30.350Z,98441.50
2022-12-31T01:29:59.086Z,98443.25
2022-12-31T01:32:28.062Z,98453.13
2022-12-31T01:34:56.716Z,98450.22
2022-12-31T01:37:26.819Z,98458.44
2022-12-31T01:39:55.549Z,98457.19
2022-12-31T01:42:24.239Z,98467.41
2022-12-31T01:44:56.866Z,98455.81
2022-12-31T01:47:38.623Z,98467.03
2022-12-31T01:50:16.525Z,98465.53
2022-12-31T01:52:53.927Z,98470.41
2022-12-31T01:55:29.370Z,98476.44
2022-12-31T01:58:06.299Z,98480.38
2022-12-31T02:00:35.654Z,98493.47
2022-12-31T02:03:08.312Z,98496.25
2022-12-31T02:09:49.011Z,98484.78
2022-12-31T02:12:16.695Z,98489.66
2022-12-31T02:14:50.396Z,98496.63
2022-12-31T02:20:52.707Z,98504.75
2022-12-31T02:24:25.747Z,98498.91
2022-12-31T02:27:06.717Z,98505.31
2022-12-31T02:30:17.943Z,98507.03
2022-12-31T02:33:09.386Z,98497.72
2022-12-31T02:35:50.728Z,98490.53
2022-12-31T02:38:26.828Z,98469.16
2022-12-31T02:40:56.313Z,98482.50
2022-12-31T02:43:25.854Z,98489.38
2022-12-31T02:46:14.480Z,98482.50
2022-12-31T02:48:53.697Z,98481.47
2022-12-31T02:51:38.371Z,98498.31
2022-12-31T02:54:38.548Z,98483.91
2022-12-31T02:57:22.037Z,98467.88
2022-12-31T03:00:16.428Z,98470.31
2022-12-31T03:02:49.492Z,98461.03
2022-12-31T03:05:24.051Z,98464.72
2022-12-31T03:07:53.315Z,98471.13
2022-12-31T03:10:22.328Z,98474.28
2022-12-31T03:12:51.549Z,98487.16
2022-12-31T03:15:24.342Z,98484.34
2022-12-31T03:17:59.582Z,98478.78
2022-12-31T03:20:49.535Z,98484.72
2022-12-31T03:23:23.093Z,98477.88
2022-12-31T03:25:51.149Z,98488.88
2022-12-31T03:28:23.503Z,98483.88
2022-12-31T03:30:57.587Z,98484.44
2022-12-31T03:33:32.747Z,98477.94
2022-12-31T03:36:04.600Z,98491.41
2022-12-31T03:38:33.419Z,98492.56
2022-12-31T03:41:02.135Z,98500.59
2022-12-31T03:43:30.871Z,98480.25
2022-12-31T03:46:01.725Z,98461.06
2022-12-31T03:48:31.894Z,98462.47
2022-12-31T03:51:00.543Z,98463.75
2022-12-31T03:53:29.263Z,98456.31
2022-12-31T03:55:57.997Z,98457.38
2022-12-31T03:58:26.747Z,98460.25
2022-12-31T04:00:55.658Z,98466.75
2022-12-31T04:03:26.527Z,98469.44
2022-12-31T04:05:57.210Z,98468.38
2022-12-31T04:08:26.105Z,98467.47
2022-12-31T04:10:54.796Z,98473.41
2022-12-31T04:13:23.493Z,98470.72
2022-12-31T04:15:53.066Z,98466.25
2022-12-31T04:18:21.863Z,98463.13
2022-12-31T04:20:50.596Z,98463.38
2022-12-31T04:23:20.871Z,98460.47
2022-12-31T04:25:49.706Z,98458.59
2022-12-31T04:28:18.362Z,98460.47
2022-12-31T04:30:47.097Z,98460.91
2022-12-31T04:33:15.761Z,98458.59
2022-12-31T04:35:44.952Z,98436.75
2022-12-31T04:38:13.604Z,98450.69
2022-12-31T04:40:57.461Z,98453.91
2022-12-31T04:43:26.052Z,98452.28
2022-12-31T04:45:54.766Z,98462.50
2022-12-31T04:48:49.178Z,98456.13
2022-12-31T04:51:18.007Z,98455.06
2022-12-31T04:53:47.351Z,98465.25
2022-12-31T04:56:20.421Z,98454.56
2022-12-31T04:58:49.443Z,98449.00
2022-12-31T05:01:18.489Z,98454.66
2022-12-31T05:03:47.612Z,98460.91
2022-12-31T05:06:24.216Z,98455.91
2022-12-31T05:08:53.069Z,98450.56
2022-12-31T05:11:23.155Z,98459.13
2022-12-31T05:13:51.933Z,98446.13
2022-12-31T05:16:20.664Z,98453.78
2022-12-31T05:18:49.451Z,98445.38
2022-12-31T05:21:22.899Z,98453.47
2022-12-31T05:23:51.823Z,98452.19
2022-12-31T05:26:20.568Z,98453.81
2022-12-31T05:28:50.698Z,98461.34
2022-12-31T05:31:19.548Z,98464.59
2022-12-31T05:33:49.923Z,98458.34
2022-12-31T05:36:18.681Z,98453.22
2022-12-31T05:38:47.432Z,98459.97
2022-12-31T05:41:16.151Z,98453.31
2022-12-31T05:43:44.952Z,98443.94
2022-12-31T05:46:16.288Z,98449.28
2022-12-31T05:48:45.042Z,98467.44
2022-12-31T05:51:13.696Z,98455.09
2022-12-31T05:53:42.326Z,98465.72
2022-12-31T05:56:12.965Z,98468.63
2022-12-31T05:58:47.660Z,98474.78
2022-12-31T06:01:22.844Z,98481.69
2022-12-31T06:04:02.840Z,98483.84
2022-12-31T06:06:59.026Z,98492.22
2022-12-31T06:09:27.776Z,98487.13
2022-12-31T06:11:56.765Z,98494.41
2022-12-31T06:15:06.366Z,98495.31
2022-12-31T06:17:37.578Z,98495.78
2022-12-31T06:20:49.419Z,98487.69
2022-12-31T06:23:18.057Z,98492.53
2022-12-31T06:25:46.747Z,98480.22
2022-12-31T06:28:20.011Z,98491.97
2022-12-31T06:30:49.579Z,98485.00
2022-12-31T06:33:21.444Z,98483.69
2022-12-31T06:35:50.147Z,98482.44
2022-12-31T06:38:19.164Z,98477.00
2022-12-31T06:40:48.091Z,98476.28
2022-12-31T06:43:16.864Z,98481.84
2022-12-31T06:45:45.665Z,98474.88
2022-12-31T06:48:15.036Z,98479.16
2022-12-31T06:50:45.789Z,98496.84
2022-12-31T06:53:15.004Z,98490.91
2022-12-31T06:55:44.711Z,98500.50
2022-12-31T06:58:15.094Z,98495.16
2022-12-31T07:00:58.632Z,98496.75
2022-12-31T07:03:41.316Z,98499.66
2022-12-31T07:06:18.514Z,98508.50
2022-12-31T07:08:58.238Z,98506.97
2022-12-31T07:11:33.622Z,98501.63
2022-12-31T07:14:17.688Z,98510.78
2022-12-31T07:17:09.253Z,98504.88
2022-12-31T07:19:57.754Z,98508.56
2022-12-31T07:22:29.224Z,98512.91
2022-12-31T07:24:58.688Z,98513.13
2022-12-31T07:27:49.387Z,98511.19
2022-12-31T07:31:32.023Z,98513.47
2022-12-31T07:34:08.812Z,98530.16
2022-12-31T07:37:07.819Z,98519.00
2022-12-31T07:39:48.662Z,98520.94
2022-12-31T07:42:26.230Z,98529.63
2022-12-31T07:45:05.174Z,98526.00
2022-12-31T07:47:34.802Z,98513.81
2022-12-31T07:50:04.415Z,98524.38
2022-12-31T07:52:33.885Z,98519.13
2022-12-31T07:55:04.012Z,98517.59
2022-12-31T07:57:43.709Z,98517.41
2022-12-31T08:00:16.941Z,98532.75
2022-12-31T08:03:19.124Z,98521.06
2022-12-31T08:05:57.200Z,98519.03
2022-12-31T08:08:38.190Z,98543.59
2022-12-31T08:11:23.113Z,98546.63
2022-12-31T08:13:57.309Z,98540.38
2022-12-31T08:16:26.984Z,98536.69
2022-12-31T08:18:56.632Z,98554.22
2022-12-31T08:21:39.756Z,98545.75
2022-12-31T08:24:21.189Z,98550.88
2022-12-31T08:27:10.767Z,98535.47
2022-12-31T08:29:51.119Z,98565.72
2022-12-31T08:32:27.340Z,98556.09
2022-12-31T08:35:20.535Z,98555.34
2022-12-31T08:38:03.598Z,98569.38
2022-12-31T08:40:48.921Z,98557.88
2022-12-31T08:43:49.751Z,98564.63
2022-12-31T08:46:26.876Z,98586.09
2022-12-31T08:48:56.543Z,98577.53
2022-12-31T08:51:28.298Z,98607.75
2022-12-31T08:53:57.876Z,98575.34
2022-12-31T08:56:33.931Z,98588.31
2022-12-31T09:04:39.146Z,98581.06
2022-12-31T09:07:11.309Z,98585.97
2022-12-31T09:09:57.631Z,98581.44
2022-12-31T09:12:36.637Z,98601.06
2022-12-31T09:15:15.135Z,98594.78
2022-12-31T09:17:49.368Z,98603.69
2022-12-31T09:20:36.319Z,98594.88
2022-12-31T09:23:12.220Z,98596.97
2022-12-31T09:25:52.417Z,98605.34
2022-12-31T09:28:45.259Z,98618.03
2022-12-31T09:31:22.900Z,98614.81
2022-12-31T09:34:01.831Z,98607.81
2022-12-31T09:36:38.267Z,98618.59
2022-12-31T09:39:24.136Z,98615.91
2022-12-31T09:42:48.622Z,98603.03
2022-12-31T09:46:22.404Z,98615.69
2022-12-31T09:49:56.593Z,98619.44
2022-12-31T09:52:43.604Z,98611.66
2022-12-31T09:55:40.712Z,98600.91
2022-12-31T09:58:36.338Z,98588.81
2022-12-31T10:01:19.512Z,98592.84
2022-12-31T10:04:51.924Z,98592.91
2022-12-31T10:07:40.927Z,98563.06
2022-12-31T10:10:23.444Z,98576.78
2022-12-31T10:13:37.615Z,98593.19
2022-12-31T10:16:58.126Z,98596.75
2022-12-31T10:20:18.163Z,98587.63
2022-12-31T10:23:52.334Z,98595.78
2022-12-31T10:26:38.766Z,98604.41
2022-12-31T10:29:25.049Z,98583.97
2022-12-31T10:32:16.619Z,98582.41
2022-12-31T10:35:00.297Z,98580.81
2022-12-31T10:37:41.044Z,98582.47
2022-12-31T10:40:32.216Z,98555.53
2022-12-31T10:43:59.564Z,98589.72
2022-12-31T10:47:07.167Z,98582.44
2022-12-31T10:50:17.282Z,98593.22
2022-12-31T10:53:35.010Z,98588.41
2022-12-31T10:57:09.778Z,98596.72
2022-12-31T11:00:12.119Z,98599.16
2022-12-31T11:03:40.203Z,98597.56
2022-12-31T11:07:28.268Z,98586.56
2022-12-31T11:10:27.977Z,98584.38
2022-12-31T11:13:59.747Z,98582.50
2022-12-31T11:16:59.017Z,98575.00
2022-12-31T11:19:43.105Z,98568.03
2022-12-31T11:22:37.115Z,98577.19
2022-12-31T11:30:19.997Z,98574.53
2022-12-31T11:33:10.443Z,98576.38
2022-12-31T11:36:01.450Z,98564.03
2022-12-31T11:38:37.020Z,98568.03
2022-12-31T11:41:12.971Z,98562.13
2022-12-31T11:43:54.655Z,98566.97
2022-12-31T11:47:04.626Z,98578.84
2022-12-31T11:50:04.480Z,98572.91
2022-12-31T11:52:58.482Z,98573.19
2022-12-31T11:55:56.992Z,98566.72
2022-12-31T11:58:28.791Z,98579.91
2022-12-31T12:01:02.654Z,98579.41
2022-12-31T12:03:34.177Z,98573.16
2022-12-31T12:06:03.037Z,98575.09
2022-12-31T12:08:34.811Z,98579.41
2022-12-31T12:11:09.701Z,98583.19
2022-12-31T12:13:38.471Z,98596.66
2022-12-31T12:16:09.552Z,98572.94
2022-12-31T12:18:46.060Z,98585.34
2022-12-31T12:21:18.779Z,98581.56
2022-12-31T12:23:57.257Z,98582.34
2022-12-31T12:26:35.924Z,98583.16
2022-12-31T12:29:13.372Z,98597.72
2022-12-31T12:31:42.827Z,98586.38
2022-12-31T12:34:27.724Z,98579.38
2022-12-31T12:36:56.629Z,98590.69
2022-12-31T12:39:29.458Z,98595.03
2022-12-31T12:42:04.515Z,98600.16
2022-12-31T12:44:35.773Z,98603.13
2022-12-31T12:47:08.502Z,98614.16
2022-12-31T12:49:43.863Z,98614.97
2022-12-31T12:52:41.807Z,98609.84
2022-12-31T12:55:21.733Z,98612.53
2022-12-31T12:58:03.035Z,98620.88
2022-12-31T13:00:39.266Z,98619.81
2022-12-31T13:04:32.903Z,98606.59
2022-12-31T13:07:13.416Z,98605.53
2022-12-31T13:10:10.458Z,98613.59
2022-12-31T13:15:55.353Z,98612.25
2022-12-31T13:18:43.871Z,98620.91
2022-12-31T13:21:45.379Z,98624.66
2022-12-31T13:24:35.771Z,98609.28
2022-12-31T13:27:13.679Z,98601.22
2022-12-31T13:29:48.002Z,98605.00
2022-12-31T13:32:23.218Z,98624.69
2022-12-31T13:34:59.399Z,98608.50
2022-12-31T13:37:38.047Z,98599.34
2022-12-31T13:40:22.858Z,98614.69
2022-12-31T13:43:00.925Z,98618.75
2022-12-31T13:45:38.829Z,98623.88
2022-12-31T13:48:18.793Z,98641.41
2022-12-31T13:50:56.226Z,98623.59
2022-12-31T13:53:34.814Z,98636.81
2022-12-31T13:56:15.659Z,98638.69
2022-12-31T13:58:53.190Z,98640.59
2022-12-31T14:01:34.042Z,98639.78
2022-12-31T14:04:15.622Z,98643.03
2022-12-31T14:06:54.809Z,98665.66
2022-12-31T14:09:28.220Z,98669.38
2022-12-31T14:12:33.026Z,98675.31
2022-12-31T14:15:19.835Z,98678.53
2022-12-31T14:18:02.151Z,98664.25
2022-12-31T14:20:47.306Z,98674.22
2022-12-31T14:23:30.265Z,98683.91
2022-12-31T14:26:06.664Z,98676.91
2022-12-31T14:28:47.145Z,98689.84
2022-12-31T14:31:32.236Z,98682.28
2022-12-31T14:34:09.609Z,98688.72
2022-12-31T14:36:52.257Z,98701.66
2022-12-31T14:39:41.164Z,98705.94
2022-12-31T14:42:25.237Z,98706.22
2022-12-31T14:45:19.068Z,98691.91
2022-12-31T14:47:57.385Z,98710.72
2022-12-31T14:50:29.710Z,98711.28
2022-12-31T14:53:10.214Z,98723.38
2022-12-31T14:55:41.965Z,98721.47
2022-12-31T14:58:30.478Z,98728.47
2022-12-31T15:01:03.447Z,98725.75
2022-12-31T15:03:45.541Z,98727.91
2022-12-31T15:06:50.206Z,98706.63
2022-12-31T15:10:04.174Z,98723.84
2022-12-31T15:12:57.401Z,98732.19
2022-12-31T15:15:42.471Z,98737.28
2022-12-31T15:18:33.264Z,98735.38
2022-12-31T15:21:35.655Z,98735.91
2022-12-31T15:24:14.843Z,98725.09
2022-12-31T15:26:52.405Z,98738.56
2022-12-31T15:29:31.009Z,98740.41
2022-12-31T15:32:04.241Z,98744.16
2022-12-31T15:34:37.191Z,98748.97
2022-12-31T15:37:28.073Z,98759.19
2022-12-31T15:40:19.541Z,98763.72
2022-12-31T15:42:56.720Z,98766.91
2022-12-31T15:45:34.199Z,98762.31
2022-12-31T15:48:10.108Z,98758.25
2022-12-31T15:50:44.433Z,98756.66
2022-12-31T15:53:28.788Z,98755.03
2022-12-31T15:56:01.776Z,98740.47
2022-12-31T15:58:36.027Z,98744.16
2022-12-31T16:01:15.904Z,98756.25
2022-12-31T16:03:49.113Z,98755.09
2022-12-31T16:06:20.358Z,98755.84
2022-12-31T16:08:51.771Z,98758.25
2022-12-31T16:11:20.650Z,98758.47
2022-12-31T16:13:53.871Z,98753.94
2022-12-31T16:16:25.615Z,98741.53
2022-12-31T16:18:54.689Z,98745.03
2022-12-31T16:21:34.927Z,98745.03
2022-12-31T16:24:07.662Z,98741.22
2022-12-31T16:26:47.900Z,98736.97
2022-12-31T16:29:20.069Z,98738.31
2022-12-31T16:31:50.432Z,98744.50
2022-12-31T16:34:22.568Z,98741.81
2022-12-31T16:37:01.265Z,98735.56
2022-12-31T16:39:33.183Z,98735.09
2022-12-31T16:42:20.188Z,98743.69
2022-12-31T16:44:49.767Z,98727.56
2022-12-31T16:47:23.680Z,98743.63
2022-12-31T16:50:04.116Z,98732.88
2022-12-31T16:52:40.604Z,98734.50
2022-12-31T16:55:11.792Z,98728.59
2022-12-31T16:57:40.728Z,98724.00
2022-12-31T17:00:17.664Z,98730.50
2022-12-31T17:02:54.469Z,98735.97
2022-12-31T17:05:26.755Z,98736.25
2022-12-31T17:07:57.075Z,98733.28
2022-12-31T17:10:33.994Z,98748.31
2022-12-31T17:13:27.114Z,98756.66
2022-12-31T17:15:59.170Z,98753.41
2022-12-31T17:18:34.201Z,98747.72
2022-12-31T17:21:11.169Z,98754.97
2022-12-31T17:23:43.335Z,98763.22
2022-12-31T17:26:14.874Z,98752.50
2022-12-31T17:28:48.287Z,98756.31
2022-12-31T17:31:36.277Z,98755.25
2022-12-31T17:34:24.782Z,98760.63
2022-12-31T17:37:00.756Z,98773.03
2022-12-31T17:39:47.210Z,98770.34
2022-12-31T17:42:31.279Z,98760.41
2022-12-31T17:45:06.724Z,98763.91
2022-12-31T17:47:39.531Z,98780.84
2022-12-31T17:50:22.764Z,98790.25
2022-12-31T17:52:54.451Z,98784.88
2022-12-31T17:55:25.511Z,98789.94
2022-12-31T17:57:57.976Z,98784.78
2022-12-31T18:00:28.855Z,98790.72
2022-12-31T18:02:58.236Z,98786.38
2022-12-31T18:05:28.064Z,98772.41
2022-12-31T18:07:57.643Z,98789.06
2022-12-31T18:10:33.586Z,98791.97
2022-12-31T18:13:04.960Z,98802.50
2022-12-31T18:15:35.331Z,98791.94
2022-12-31T18:18:24.503Z,98779.09
2022-12-31T18:20:59.093Z,98784.53
2022-12-31T18:23:33.105Z,98785.88
2022-12-31T18:26:03.580Z,98779.72
2022-12-31T18:28:32.465Z,98780.47
2022-12-31T18:31:01.303Z,98779.91
2022-12-31T18:33:30.111Z,98781.44
2022-12-31T18:36:08.676Z,98778.78
2022-12-31T18:38:39.327Z,98783.09
2022-12-31T18:41:18.018Z,98775.56
2022-12-31T18:43:47.743Z,98778.75
2022-12-31T18:46:20.616Z,98772.81
2022-12-31T18:48:50.493Z,98781.34
2022-12-31T18:51:25.256Z,98775.66
2022-12-31T18:54:04.634Z,98771.81
2022-12-31T18:56:34.777Z,98776.34
2022-12-31T18:59:03.680Z,98773.81
2022-12-31T19:01:36.408Z,98768.75
2022-12-31T19:04:13.543Z,98773.31
2022-12-31T19:06:42.995Z,98766.56
2022-12-31T19:09:30.980Z,98782.38
2022-12-31T19:12:03.007Z,98778.34
2022-12-31T19:14:31.709Z,98777.25
2022-12-31T19:19:30.478Z,98776.69
2022-12-31T19:21:59.230Z,98775.06
2022-12-31T19:24:30.336Z,98762.97
2022-12-31T19:26:59.259Z,98766.19
2022-12-31T19:29:30.048Z,98760.97
2022-12-31T19:32:01.271Z,98758.84
2022-12-31T19:34:30.000Z,98753.47
2022-12-31T19:36:58.881Z,98746.53
2022-12-31T19:39:28.364Z,98746.53
2022-12-31T19:41:59.354Z,98751.09
2022-12-31T19:44:30.158Z,98755.66
2022-12-31T19:47:00.481Z,98754.09
2022-12-31T19:49:29.421Z,98756.25
2022-12-31T19:51:59.009Z,98753.31
2022-12-31T19:54:28.586Z,98768.94
2022-12-31T19:56:57.392Z,98753.91
2022-12-31T19:59:26.857Z,98759.81
2022-12-31T20:01:59.350Z,98763.13
2022-12-31T20:04:28.688Z,98765.56
2022-12-31T20:06:58.003Z,98773.09
2022-12-31T20:09:28.776Z,98777.31
2022-12-31T20:11:57.601Z,98765.00
2022-12-31T20:14:27.779Z,98770.94
2022-12-31T20:17:00.237Z,98777.34
2022-12-31T20:19:28.925Z,98767.13
2022-12-31T20:21:57.914Z,98773.81
2022-12-31T20:24:28.085Z,98778.69
2022-12-31T20:26:56.848Z,98772.44
2022-12-31T20:29:25.646Z,98769.75
2022-12-31T20:31:54.326Z,98774.63
2022-12-31T20:34:24.421Z,98780.22
2022-12-31T20:36:53.109Z,98775.31
2022-12-31T20:39:22.084Z,98765.44
2022-12-31T20:41:54.563Z,98773.00
2022-12-31T20:44:23.442Z,98771.06
2022-12-31T20:46:53.096Z,98776.75
2022-12-31T20:49:52.294Z,98778.75
2022-12-31T20:52:13.249Z,98789.84
2022-12-31T20:54:42.409Z,98774.03
2022-12-31T20:57:12.313Z,98788.81
2022-12-31T20:59:44.088Z,98789.84
2022-12-31T21:02:21.323Z,98778.28
2022-12-31T21:04:52.639Z,98784.72
2022-12-31T21:07:23.000Z,98787.59
2022-12-31T21:09:52.379Z,98779.59
2022-12-31T21:12:38.621Z,98784.66
2022-12-31T21:15:09.269Z,98773.91
2022-12-31T21:17:38.593Z,98766.94
2022-12-31T21:20:11.865Z,98761.28
2022-12-31T21:22:41.188Z,98758.31
2022-12-31T21:25:12.604Z,98761.75
2022-12-31T21:27:41.916Z,98759.06
2022-12-31T21:30:19.095Z,98755.06
2022-12-31T21:32:49.377Z,98748.94
2022-12-31T21:38:11.136Z,98743.81
2022-12-31T21:40:40.510Z,98762.38
2022-12-31T21:43:10.306Z,98762.63
2022-12-31T21:45:40.046Z,98764.50
2022-12-31T21:48:22.220Z,98769.56
2022-12-31T21:50:56.123Z,98777.13
2022-12-31T21:53:34.211Z,98776.31
2022-12-31T21:56:11.656Z,98772.50
2022-12-31T21:58:44.081Z,98784.38
2022-12-31T22:01:36.575Z,98780.91
2022-12-31T22:04:12.902Z,98785.28
2022-12-31T22:06:54.237Z,98785.53
2022-12-31T22:09:23.029Z,98789.28
2022-12-31T22:11:56.012Z,98794.13
2022-12-31T22:14:25.442Z,98802.78
2022-12-31T22:16:54.879Z,98801.41
2022-12-31T22:19:24.863Z,98817.84
2022-12-31T22:21:55.357Z,98826.44
2022-12-31T22:24:24.497Z,98832.00
2022-12-31T22:26:55.808Z,98821.84
2022-12-31T22:29:25.993Z,98827.66
2022-12-31T22:32:00.886Z,98828.47
2022-12-31T22:34:29.865Z,98834.16
2022-12-31T22:37:08.903Z,98838.72
2022-12-31T22:39:48.480Z,98833.34
2022-12-31T22:42:17.202Z,98836.09
2022-12-31T22:44:45.814Z,98829.91
